Main page
METAR-TAF:

METAR-TAF

Airports :

RAF Wittering

Wittering, England

latitude: 52-37N, longitude: 000-28W, elevation: 84 m

Current weather observation

The report was made 33 minutes ago, at 20:50 UTC
Wind 9 kt from the South
Temperature 8°C
Humidity 87%
Pressure 1022 hPa
Visibility 10 km or more

METAR: EGXT 132050Z AUTO 18009KT 9999 BKN190/// 08/06 Q1022

Time: 21:23 (21:23 UTC)

Forecast

The report was made 8 hours and 0 minutes ago, at 13:23 UTC
Forecast valid from 13 at 15 UTC to 13 at 18 UTC
Wind 10 kt from the West/Southwest
Visibility 10 km or more
Few clouds at a height of 2500 ft

TAF: EGXT 131323Z 1315/1318 24010KT 9999 FEW025

Weather observations and forecasts of more than 4000 airports (METAR and TAF reports).

The available stations are represented by yellow and red dots on the map.

Hover mouse over dot to see the name of the station.

Then click to see weather observations and forecasts.

To change the map : click on the green buttons with a black cross to zoom in, on the green button with a dash to zoom out, or on the green arrows for adjacent maps.


METAR-TAF: